createdAt,value
2018-06-11T00:00:59.280Z,99.99
2018-06-11T00:01:59.278Z,99.99
2018-06-11T00:02:59.276Z,99.99
2018-06-11T00:03:59.279Z,99.99
2018-06-11T00:04:59.290Z,99.99
2018-06-11T00:05:59.290Z,99.99
2018-06-11T00:06:59.030Z,99.99
2018-06-11T00:07:59.294Z,99.99
2018-06-11T00:08:59.302Z,99.99
2018-06-11T00:09:59.296Z,99.99
2018-06-11T00:10:59.294Z,99.99
2018-06-11T00:11:59.308Z,99.99
2018-06-11T00:12:59.900Z,99.99
2018-06-11T00:13:59.304Z,99.99
2018-06-11T00:14:59.307Z,99.99
2018-06-11T00:15:59.046Z,99.99
2018-06-11T00:16:59.308Z,99.99
2018-06-11T00:17:59.307Z,99.99
2018-06-11T00:18:59.321Z,99.99
2018-06-11T00:19:59.049Z,99.99
2018-06-11T00:20:59.056Z,99.99
2018-06-11T00:21:59.313Z,99.99
2018-06-11T00:22:59.397Z,99.99
2018-06-11T00:23:59.061Z,99.99
2018-06-11T00:24:59.069Z,99.99
2018-06-11T00:25:59.335Z,99.99
2018-06-11T00:26:59.334Z,99.99
2018-06-11T00:27:59.334Z,99.99
2018-06-11T00:28:59.335Z,99.99
2018-06-11T00:29:59.334Z,99.99
2018-06-11T00:30:59.332Z,99.99
2018-06-11T00:31:59.337Z,99.99
2018-06-11T00:32:59.336Z,99.99
2018-06-11T00:33:59.337Z,99.99
2018-06-11T00:34:59.339Z,99.99
2018-06-11T00:35:59.086Z,99.99
2018-06-11T00:36:59.344Z,99.99
2018-06-11T00:37:59.086Z,99.99
2018-06-11T00:38:59.388Z,99.99
2018-06-11T00:39:59.358Z,99.99
2018-06-11T00:40:59.358Z,99.99
2018-06-11T00:41:59.357Z,99.99
2018-06-11T00:42:59.368Z,99.99
2018-06-11T00:43:59.361Z,99.99
2018-06-11T00:44:59.365Z,99.99
2018-06-11T00:45:59.368Z,99.99
2018-06-11T00:46:59.364Z,99.99
2018-06-11T00:47:59.377Z,99.99
2018-06-11T00:48:59.374Z,99.99
2018-06-11T00:49:59.367Z,99.99
2018-06-11T00:50:59.373Z,99.99
2018-06-11T00:51:59.376Z,99.99
2018-06-11T00:52:59.120Z,99.99
2018-06-11T00:53:59.394Z,99.99
2018-06-11T00:54:59.381Z,99.99
2018-06-11T00:55:59.410Z,99.99
2018-06-11T00:56:59.144Z,99.99
2018-06-11T00:58:01.245Z,99.99
2018-06-11T00:58:59.134Z,99.99
2018-06-11T00:59:59.391Z,99.99
2018-06-11T01:00:59.395Z,99.99
2018-06-11T01:01:59.405Z,99.99
2018-06-11T01:02:59.400Z,99.99
2018-06-11T01:03:59.438Z,99.99
2018-06-11T01:04:59.404Z,99.99
2018-06-11T01:05:59.146Z,99.99
2018-06-11T01:06:59.146Z,99.99
2018-06-11T01:07:59.146Z,99.99
2018-06-11T01:08:59.428Z,99.99
2018-06-11T01:09:59.417Z,99.99
2018-06-11T01:10:59.418Z,99.99
2018-06-11T01:11:59.413Z,99.99
2018-06-11T01:12:59.421Z,99.99
2018-06-11T01:13:59.421Z,99.99
2018-06-11T01:14:59.423Z,99.99
2018-06-11T01:15:59.420Z,99.99
2018-06-11T01:16:59.426Z,99.99
2018-06-11T01:17:59.173Z,99.99
2018-06-11T01:18:59.423Z,99.99
2018-06-11T01:19:59.171Z,99.99
2018-06-11T01:20:59.192Z,99.99
2018-06-11T01:21:59.432Z,99.99
2018-06-11T01:22:59.175Z,99.99
2018-06-11T01:23:59.434Z,99.99
2018-06-11T01:24:59.455Z,99.99
2018-06-11T01:25:59.437Z,99.99
2018-06-11T01:26:59.442Z,99.99
2018-06-11T01:27:59.443Z,99.99
2018-06-11T01:28:59.445Z,99.99
2018-06-11T01:29:59.190Z,99.99
2018-06-11T01:30:59.450Z,99.99
2018-06-11T01:31:59.194Z,99.99
2018-06-11T01:32:59.448Z,99.99
2018-06-11T01:33:59.456Z,99.99
2018-06-11T01:34:59.459Z,99.99
2018-06-11T01:35:59.458Z,99.99
2018-06-11T01:36:59.207Z,99.99
2018-06-11T01:37:59.210Z,99.99
2018-06-11T01:38:59.470Z,99.99
2018-06-11T01:39:59.490Z,99.99
2018-06-11T01:40:59.214Z,99.99
2018-06-11T01:41:59.475Z,99.99
2018-06-11T01:42:59.477Z,99.99
2018-06-11T01:43:59.477Z,99.99
2018-06-11T01:44:59.480Z,99.99
2018-06-11T01:45:59.250Z,99.99
2018-06-11T01:46:59.302Z,99.99
2018-06-11T01:47:59.551Z,99.99
2018-06-11T01:48:59.225Z,99.99
2018-06-11T01:49:59.225Z,99.99
2018-06-11T01:50:59.482Z,99.99
2018-06-11T01:51:59.482Z,99.99
2018-06-11T01:52:59.241Z,99.99
2018-06-11T01:53:59.499Z,99.99
2018-06-11T01:54:59.492Z,99.99
2018-06-11T01:55:59.796Z,99.99
2018-06-11T01:56:59.235Z,99.99
2018-06-11T01:57:59.236Z,99.99
2018-06-11T01:59:02.450Z,99.99
2018-06-11T01:59:59.503Z,99.99
2018-06-11T02:00:59.508Z,99.99
2018-06-11T02:01:59.248Z,99.99
2018-06-11T02:02:59.246Z,99.99
2018-06-11T02:03:59.507Z,99.99
2018-06-11T02:04:59.249Z,99.99
2018-06-11T02:05:59.509Z,99.99
2018-06-11T02:06:59.513Z,99.99
2018-06-11T02:07:59.268Z,99.99
2018-06-11T02:08:59.257Z,99.99
2018-06-11T02:09:59.524Z,99.99
2018-06-11T02:10:59.532Z,99.99
2018-06-11T02:11:59.538Z,99.99
2018-06-11T02:12:59.528Z,99.99
2018-06-11T02:13:59.535Z,99.99
2018-06-11T02:14:59.280Z,99.99
2018-06-11T02:15:59.541Z,99.99
2018-06-11T02:16:59.273Z,99.99
2018-06-11T02:17:59.271Z,99.99
2018-06-11T02:18:59.279Z,99.99
2018-06-11T02:19:59.543Z,99.99
2018-06-11T02:20:59.277Z,99.99
2018-06-11T02:21:59.342Z,99.99
2018-06-11T02:22:59.542Z,99.99
2018-06-11T02:23:59.549Z,99.99
2018-06-11T02:24:59.282Z,99.99
2018-06-11T02:25:59.545Z,99.99
2018-06-11T02:26:59.288Z,99.99
2018-06-11T02:27:59.550Z,99.99
2018-06-11T02:28:59.556Z,99.99
2018-06-11T02:29:59.551Z,99.99
2018-06-11T02:30:59.558Z,99.99
2018-06-11T02:31:59.301Z,99.99
2018-06-11T02:32:59.568Z,99.99
2018-06-11T02:33:59.565Z,99.99
2018-06-11T02:34:59.564Z,99.99
2018-06-11T02:35:59.336Z,99.99
2018-06-11T02:36:59.311Z,99.99
2018-06-11T02:37:59.588Z,99.99
2018-06-11T02:38:59.569Z,99.99
2018-06-11T02:39:59.330Z,99.99
2018-06-11T02:40:59.571Z,99.99
2018-06-11T02:41:59.588Z,99.99
2018-06-11T02:42:59.583Z,99.99
2018-06-11T02:43:59.340Z,99.99
2018-06-11T02:44:59.584Z,99.99
2018-06-11T02:45:59.590Z,99.99
2018-06-11T02:46:59.334Z,99.99
2018-06-11T02:47:59.586Z,99.99
2018-06-11T02:48:59.607Z,99.99
2018-06-11T02:49:59.592Z,99.99
2018-06-11T02:50:59.590Z,99.99
2018-06-11T02:51:59.618Z,99.99
2018-06-11T02:52:59.627Z,99.99
2018-06-11T02:53:59.611Z,99.99
2018-06-11T02:54:59.340Z,99.99
2018-06-11T02:55:59.351Z,99.99
2018-06-11T02:56:59.630Z,99.99
2018-06-11T02:57:59.627Z,99.99
2018-06-11T02:58:59.625Z,99.99
2018-06-11T02:59:59.632Z,99.99
2018-06-11T03:00:59.352Z,99.99
2018-06-11T03:01:59.636Z,99.99
2018-06-11T03:02:59.635Z,99.99
2018-06-11T03:03:59.632Z,99.99
2018-06-11T03:04:59.636Z,99.99
2018-06-11T03:05:59.376Z,99.99
2018-06-11T03:06:59.630Z,99.99
2018-06-11T03:07:59.630Z,99.99
2018-06-11T03:08:59.394Z,99.99
2018-06-11T03:09:59.373Z,99.99
2018-06-11T03:10:59.377Z,99.99
2018-06-11T03:11:59.634Z,99.99
2018-06-11T03:12:59.379Z,99.99
2018-06-11T03:13:59.631Z,99.99
2018-06-11T03:14:59.639Z,99.99
2018-06-11T03:15:59.643Z,99.99
2018-06-11T03:16:59.639Z,99.99
2018-06-11T03:17:59.381Z,99.99
2018-06-11T03:18:59.664Z,99.99
2018-06-11T03:19:59.648Z,99.99
2018-06-11T03:20:59.652Z,99.99
2018-06-11T03:21:59.681Z,99.99
2018-06-11T03:22:59.644Z,99.99
2018-06-11T03:23:59.650Z,99.99
2018-06-11T03:24:59.667Z,99.99
2018-06-11T03:25:59.664Z,99.99
2018-06-11T03:26:59.407Z,99.99
2018-06-11T03:27:59.405Z,99.99
2018-06-11T03:28:59.405Z,99.99
2018-06-11T03:29:59.403Z,99.99
2018-06-11T03:30:59.669Z,99.99
2018-06-11T03:31:59.410Z,99.99
2018-06-11T03:32:59.670Z,99.99
2018-06-11T03:33:59.672Z,99.99
2018-06-11T03:34:59.425Z,99.99
2018-06-11T03:35:59.412Z,99.99
2018-06-11T03:36:59.671Z,99.99
2018-06-11T03:37:59.673Z,99.99
2018-06-11T03:38:59.414Z,99.99
2018-06-11T03:39:59.693Z,99.99
2018-06-11T03:40:59.427Z,99.99
2018-06-11T03:41:59.683Z,99.99
2018-06-11T03:42:59.700Z,99.99
2018-06-11T03:43:59.690Z,99.99
2018-06-11T03:44:59.422Z,99.99
2018-06-11T03:45:59.711Z,99.99
2018-06-11T03:46:59.691Z,99.99
2018-06-11T03:47:59.435Z,99.99
2018-06-11T03:48:59.701Z,99.99
2018-06-11T03:49:59.696Z,99.99
2018-06-11T03:50:59.701Z,99.99
2018-06-11T03:51:59.437Z,99.99
2018-06-11T03:52:59.438Z,99.99
2018-06-11T03:53:59.472Z,99.99
2018-06-11T03:54:59.713Z,99.99
2018-06-11T03:55:59.452Z,99.99
2018-06-11T03:56:59.714Z,99.99
2018-06-11T03:57:59.465Z,99.99
2018-06-11T03:58:59.457Z,99.99
2018-06-11T03:59:59.969Z,99.99
2018-06-11T04:00:59.724Z,99.99
2018-06-11T04:01:59.468Z,99.99
2018-06-11T04:02:59.729Z,99.99
2018-06-11T04:03:59.467Z,99.99
2018-06-11T04:04:59.721Z,99.99
2018-06-11T04:05:59.477Z,99.99
2018-06-11T04:06:59.730Z,99.99
2018-06-11T04:07:59.736Z,99.99
2018-06-11T04:08:59.476Z,99.99
2018-06-11T04:09:59.474Z,99.99
2018-06-11T04:10:59.924Z,99.99
2018-06-11T04:11:59.740Z,99.99
2018-06-11T04:12:59.744Z,99.99
2018-06-11T04:13:59.497Z,99.99
2018-06-11T04:14:59.537Z,99.99
2018-06-11T04:15:59.490Z,99.99
2018-06-11T04:16:59.757Z,99.99
2018-06-11T04:17:59.753Z,99.99
2018-06-11T04:18:59.757Z,99.99
2018-06-11T04:19:59.769Z,99.99
2018-06-11T04:20:59.506Z,99.99
2018-06-11T04:21:59.767Z,99.99
2018-06-11T04:22:59.786Z,99.99
2018-06-11T04:23:59.773Z,99.99
2018-06-11T04:24:59.782Z,99.99
2018-06-11T04:25:59.784Z,99.99
2018-06-11T04:26:59.528Z,99.99
2018-06-11T04:27:59.785Z,99.99
2018-06-11T04:28:59.795Z,99.99
2018-06-11T04:29:59.798Z,99.98
2018-06-11T04:30:59.536Z,99.99
2018-06-11T04:31:59.546Z,99.99
2018-06-11T04:32:59.806Z,99.99
2018-06-11T04:33:59.553Z,99.31
2018-06-11T04:34:59.556Z,98.92
2018-06-11T04:35:59.844Z,98.34
2018-06-11T04:36:59.824Z,97.67
2018-06-11T04:37:59.834Z,97.77
2018-06-11T04:38:59.832Z,97.33
2018-06-11T04:39:59.680Z,96.75
2018-06-11T04:40:59.906Z,96.56
2018-06-11T04:41:59.844Z,95.88
2018-06-11T04:42:59.855Z,96.56
2018-06-11T04:43:59.853Z,95.88
2018-06-11T04:44:59.854Z,95.11
2018-06-11T04:45:59.605Z,93.61
2018-06-11T04:46:59.878Z,92.35
2018-06-11T04:47:59.612Z,90.81
2018-06-11T04:48:59.608Z,91.19
2018-06-11T04:49:59.622Z,90.52
2018-06-11T04:50:59.883Z,90.33
2018-06-11T04:51:59.631Z,89.4
2018-06-11T04:52:59.897Z,89.4
2018-06-11T04:53:59.896Z,88.24
2018-06-11T04:54:59.912Z,86.55
2018-06-11T04:55:59.651Z,86.55
2018-06-11T04:56:59.920Z,86.25
2018-06-11T04:57:59.916Z,85.24
2018-06-11T04:58:59.926Z,84.56
2018-06-11T04:59:59.733Z,84.17
2018-06-11T05:00:59.944Z,84.08
2018-06-11T05:01:59.938Z,83.4
2018-06-11T05:02:59.692Z,83.53
2018-06-11T05:03:59.951Z,83.63
2018-06-11T05:04:59.696Z,83.25
2018-06-11T05:05:59.977Z,83.05
2018-06-11T05:06:59.962Z,83.15
2018-06-11T05:07:59.979Z,82.37
2018-06-11T05:08:59.978Z,81.98
2018-06-11T05:09:59.766Z,81.6
2018-06-11T05:10:59.989Z,81.5
2018-06-11T05:12:00.010Z,81.5
2018-06-11T05:12:59.745Z,80.05
2018-06-11T05:14:00.013Z,79.7
2018-06-11T05:15:00.067Z,78.19
2018-06-11T05:15:59.756Z,77.61
2018-06-11T05:17:00.031Z,77.7
2018-06-11T05:17:59.771Z,78.19
2018-06-11T05:19:00.033Z,77.42
2018-06-11T05:19:59.774Z,76.68
2018-06-11T05:21:00.063Z,76.35
2018-06-11T05:22:00.053Z,76.19
2018-06-11T05:23:00.066Z,76.1
2018-06-11T05:24:00.088Z,75.9
2018-06-11T05:25:00.081Z,75.07
2018-06-11T05:26:00.093Z,74.87
2018-06-11T05:26:59.821Z,74.19
2018-06-11T05:28:00.087Z,74.19
2018-06-11T05:29:00.090Z,73.9
2018-06-11T05:30:00.131Z,74.1
2018-06-11T05:31:00.139Z,74.39
2018-06-11T05:32:00.108Z,73.42
2018-06-11T05:33:00.122Z,73.52
2018-06-11T05:34:00.142Z,73.26
2018-06-11T05:34:59.885Z,73.46
2018-06-11T05:36:00.152Z,74.58
2018-06-11T05:37:00.140Z,75.71
2018-06-11T05:38:00.203Z,76.48
2018-06-11T05:39:00.152Z,78.38
2018-06-11T05:40:00.182Z,78.74
2018-06-11T05:40:59.923Z,79.5
2018-06-11T05:42:00.173Z,80.73
2018-06-11T05:42:59.928Z,81.02
2018-06-11T05:43:59.933Z,81.4
2018-06-11T05:45:00.188Z,81.5
2018-06-11T05:46:00.194Z,81.79
2018-06-11T05:47:00.208Z,81.6
2018-06-11T05:48:00.300Z,80.47
2018-06-11T05:49:00.215Z,79.5
2018-06-11T05:50:00.216Z,78.58
2018-06-11T05:50:59.964Z,78
2018-06-11T05:52:00.232Z,78.87
2018-06-11T05:53:00.230Z,79.06
2018-06-11T05:54:00.240Z,78.29
2018-06-11T05:54:59.987Z,78
2018-06-11T05:56:00.001Z,77.36
2018-06-11T05:57:00.000Z,77.84
2018-06-11T05:58:00.316Z,76.93
2018-06-11T05:59:00.018Z,75.61
2018-06-11T06:00:00.277Z,76.52
2018-06-11T06:01:00.281Z,75.45
2018-06-11T06:02:00.040Z,75.55
2018-06-11T06:03:00.288Z,75.42
2018-06-11T06:04:00.298Z,74.39
2018-06-11T06:05:00.299Z,73.9
2018-06-11T06:06:00.308Z,72.77
2018-06-11T06:07:00.314Z,71.94
2018-06-11T06:08:00.323Z,70.67
2018-06-11T06:09:00.323Z,70.09
2018-06-11T06:10:00.352Z,71.48
2018-06-11T06:11:00.365Z,70.22
2018-06-11T06:12:00.082Z,69.84
2018-06-11T06:13:00.090Z,69.54
2018-06-11T06:14:00.356Z,68.9
2018-06-11T06:15:00.157Z,67.93
2018-06-11T06:16:00.111Z,68.02
2018-06-11T06:17:00.383Z,67.08
2018-06-11T06:18:00.123Z,66.05
2018-06-11T06:19:00.127Z,64.39
2018-06-11T06:20:00.408Z,63.55
2018-06-11T06:21:00.146Z,63.48
2018-06-11T06:22:00.166Z,63.19
2018-06-11T06:23:00.419Z,63.29
2018-06-11T06:24:00.166Z,65.23
2018-06-11T06:25:00.192Z,64.84
2018-06-11T06:26:00.445Z,64.72
2018-06-11T06:27:00.201Z,65.11
2018-06-11T06:28:00.469Z,64.62
2018-06-11T06:29:00.461Z,63.65
2018-06-11T06:30:00.467Z,62.99
2018-06-11T06:31:00.472Z,62.99
2018-06-11T06:32:00.223Z,63.19
2018-06-11T06:33:00.490Z,64.26
2018-06-11T06:34:00.504Z,64.91
2018-06-11T06:35:00.508Z,66.63
2018-06-11T06:36:00.506Z,67.67
2018-06-11T06:37:00.520Z,70.75
2018-06-11T06:38:00.260Z,73
2018-06-11T06:39:00.530Z,74.62
2018-06-11T06:40:00.276Z,76.29
2018-06-11T06:41:00.542Z,77.32
2018-06-11T06:42:00.552Z,79.25
2018-06-11T06:43:00.566Z,80.9
2018-06-11T06:44:00.611Z,80.28
2018-06-11T06:45:00.305Z,80.67
2018-06-11T06:46:00.573Z,79.99
2018-06-11T06:47:00.573Z,79.9
2018-06-11T06:48:00.330Z,78.83
2018-06-11T06:49:00.324Z,78.64
2018-06-11T06:50:00.592Z,78.29
2018-06-11T06:51:00.600Z,77.9
2018-06-11T06:52:00.605Z,77.32
2018-06-11T06:53:00.634Z,77.06
2018-06-11T06:54:00.627Z,76.87
2018-06-11T06:55:00.626Z,76.78
2018-06-11T06:56:00.376Z,75.81
2018-06-11T06:57:00.629Z,75.84
2018-06-11T06:58:00.632Z,74.77
2018-06-11T06:59:00.646Z,73.26
2018-06-11T07:00:00.448Z,72.03
2018-06-11T07:01:00.654Z,71.84
2018-06-11T07:02:00.654Z,71
2018-06-11T07:03:00.401Z,69.93
2018-06-11T07:04:00.425Z,68.99
2018-06-11T07:05:00.669Z,67.57
2018-06-11T07:06:00.683Z,67.41
2018-06-11T07:07:00.431Z,67.31
2018-06-11T07:08:00.717Z,66.93
2018-06-11T07:09:00.697Z,67.31
2018-06-11T07:10:00.702Z,67.38
2018-06-11T07:11:00.710Z,67.47
2018-06-11T07:12:00.460Z,67.76
2018-06-11T07:13:00.467Z,68.15
2018-06-11T07:14:00.738Z,68.93
2018-06-11T07:15:00.732Z,69.29
2018-06-11T07:16:00.749Z,70.16
2018-06-11T07:17:00.749Z,70.81
2018-06-11T07:18:00.749Z,70.81
2018-06-11T07:19:00.754Z,71.2
2018-06-11T07:20:00.519Z,72.03
2018-06-11T07:21:00.765Z,72.71
2018-06-11T07:22:00.775Z,72.61
2018-06-11T07:23:00.780Z,73.94
2018-06-11T07:24:00.526Z,74.13
2018-06-11T07:25:00.786Z,74.43
2018-06-11T07:26:00.533Z,73.74
2018-06-11T07:27:00.830Z,74.62
2018-06-11T07:28:00.818Z,74.77
2018-06-11T07:29:00.812Z,75.55
2018-06-11T07:30:01.069Z,74.87
2018-06-11T07:31:00.825Z,75.65
2018-06-11T07:32:00.823Z,75.65
2018-06-11T07:33:00.831Z,75.74
2018-06-11T07:34:00.842Z,75.36
2018-06-11T07:35:00.931Z,76.32
2018-06-11T07:36:00.851Z,76.23
2018-06-11T07:37:00.861Z,77.26
2018-06-11T07:38:00.621Z,77.65
2018-06-11T07:39:00.867Z,77.94
2018-06-11T07:40:00.878Z,79.1
2018-06-11T07:41:00.970Z,78.67
2018-06-11T07:42:00.896Z,79.35
2018-06-11T07:43:00.901Z,78.67
2018-06-11T07:44:00.908Z,79.06
2018-06-11T07:45:00.635Z,79.74
2018-06-11T07:46:00.912Z,79.45
2018-06-11T07:47:00.647Z,79.25
2018-06-11T07:48:00.689Z,80.32
2018-06-11T07:49:00.659Z,79.55
2018-06-11T07:50:00.936Z,77.9
2018-06-11T07:51:00.669Z,78
2018-06-11T07:52:00.940Z,77.22
2018-06-11T07:53:00.938Z,77.45
2018-06-11T07:54:00.941Z,77.94
2018-06-11T07:55:00.688Z,78.61
2018-06-11T07:56:00.693Z,77.94
2018-06-11T07:57:00.967Z,78.42
2018-06-11T07:58:00.972Z,77.55
2018-06-11T07:59:00.964Z,78.13
2018-06-11T08:00:00.740Z,78.03
2018-06-11T08:01:00.977Z,76.97
2018-06-11T08:02:00.985Z,77.16
2018-06-11T08:03:00.985Z,77.45
2018-06-11T08:04:00.990Z,77.01
2018-06-11T08:05:00.738Z,77.16
2018-06-11T08:06:00.743Z,76.91
2018-06-11T08:07:01.006Z,76.14
2018-06-11T08:08:00.760Z,76.14
2018-06-11T08:09:00.762Z,75.26
2018-06-11T08:10:01.023Z,75.36
2018-06-11T08:11:01.032Z,74.58
2018-06-11T08:12:00.783Z,74.91
2018-06-11T08:13:01.041Z,74.52
2018-06-11T08:14:01.046Z,74.71
2018-06-11T08:15:01.101Z,73.84
2018-06-11T08:16:01.068Z,73.26
2018-06-11T08:17:00.799Z,74.17
2018-06-11T08:18:01.087Z,73.49
2018-06-11T08:19:01.069Z,73.46
2018-06-11T08:20:01.072Z,74.33
2018-06-11T08:21:01.082Z,73.74
2018-06-11T08:22:01.095Z,74.17
2018-06-11T08:23:00.836Z,73.39
2018-06-11T08:24:01.102Z,72.61
2018-06-11T08:25:00.854Z,73.49
2018-06-11T08:26:01.105Z,73.2
2018-06-11T08:27:01.120Z,73.3
2018-06-11T08:28:01.114Z,72.81
2018-06-11T08:29:01.124Z,73.88
2018-06-11T08:30:00.871Z,73.58
2018-06-11T08:31:00.872Z,72.71
2018-06-11T08:32:00.879Z,72.52
2018-06-11T08:33:01.145Z,71.88
2018-06-11T08:34:00.902Z,70.42
2018-06-11T08:35:00.891Z,70.03
2018-06-11T08:36:00.894Z,69.09
2018-06-11T08:37:00.920Z,68.35
2018-06-11T08:38:00.940Z,68.35
2018-06-11T08:39:00.933Z,67.5
2018-06-11T08:40:01.187Z,64.42
2018-06-11T08:41:01.191Z,62.7
2018-06-11T08:42:01.197Z,62.54
2018-06-11T08:43:01.201Z,61.96
2018-06-11T08:44:01.225Z,62.44
2018-06-11T08:45:01.779Z,64.45
2018-06-11T08:46:01.241Z,66.41
2018-06-11T08:47:00.989Z,65.2
2018-06-11T08:48:00.988Z,65.56
2018-06-11T08:49:01.242Z,66.05
2018-06-11T08:50:01.272Z,65.95
2018-06-11T08:51:01.259Z,67.11
2018-06-11T08:52:01.264Z,66.93
2018-06-11T08:53:01.268Z,66.73
2018-06-11T08:54:01.015Z,67.18
2018-06-11T08:55:01.294Z,67.38
2018-06-11T08:56:01.326Z,68.44
2018-06-11T08:57:01.037Z,67.67
2018-06-11T08:58:01.037Z,68.35
2018-06-11T08:59:01.052Z,68.15
2018-06-11T09:00:01.470Z,68.44
2018-06-11T09:01:01.328Z,70
2018-06-11T09:02:01.072Z,68.05
2018-06-11T09:03:01.072Z,67.11
2018-06-11T09:04:01.363Z,67.41
2018-06-11T09:05:01.355Z,68.74
2018-06-11T09:06:01.096Z,68.25
2018-06-11T09:07:01.111Z,68.93
2018-06-11T09:08:01.106Z,68.54
2018-06-11T09:09:01.112Z,68.35
2018-06-11T09:10:01.122Z,67.99
2018-06-11T09:11:01.384Z,65.88
2018-06-11T09:12:01.134Z,65.43
2018-06-11T09:13:01.405Z,65.11
2018-06-11T09:14:01.408Z,65.69
2018-06-11T09:15:01.424Z,66.56
2018-06-11T09:16:01.163Z,65.98
2018-06-11T09:17:01.430Z,65.5
2018-06-11T09:18:01.569Z,65.69
2018-06-11T09:19:01.445Z,65.92
2018-06-11T09:20:01.454Z,65.23
2018-06-11T09:21:01.193Z,66.37
2018-06-11T09:22:01.462Z,65.23
2018-06-11T09:23:01.487Z,64.55
2018-06-11T09:24:01.475Z,64.36
2018-06-11T09:25:01.559Z,65.14
2018-06-11T09:26:01.487Z,65.53
2018-06-11T09:27:01.485Z,64.94
2018-06-11T09:28:01.505Z,65.23
2018-06-11T09:29:01.255Z,66.08
2018-06-11T09:30:02.852Z,66.17
2018-06-11T09:31:01.275Z,68.02
2018-06-11T09:32:01.524Z,68.09
2018-06-11T09:33:01.271Z,67.8
2018-06-11T09:34:01.546Z,67.31
2018-06-11T09:35:01.573Z,67.21
2018-06-11T09:36:01.558Z,67.11
2018-06-11T09:37:01.301Z,67.5
2018-06-11T09:38:01.298Z,68.05
2018-06-11T09:39:01.559Z,69.03
2018-06-11T09:40:01.579Z,69.67
2018-06-11T09:41:01.312Z,70.06
2018-06-11T09:42:01.326Z,70.45
2018-06-11T09:43:01.585Z,70.84
2018-06-11T09:44:01.729Z,71.39
2018-06-11T09:45:01.608Z,72.65
2018-06-11T09:46:01.621Z,72.65
2018-06-11T09:47:01.348Z,72.45
2018-06-11T09:48:01.630Z,72.94
2018-06-11T09:49:01.369Z,72.45
2018-06-11T09:50:01.380Z,71.58
2018-06-11T09:51:01.629Z,72.27
2018-06-11T09:52:01.387Z,70.55
2018-06-11T09:53:01.649Z,70.36
2018-06-11T09:54:01.660Z,69.77
2018-06-11T09:55:01.406Z,69.32
2018-06-11T09:56:01.403Z,70.49
2018-06-11T09:57:01.427Z,70.2
2018-06-11T09:58:01.416Z,71.66
2018-06-11T09:59:01.452Z,70.87
2018-06-11T10:00:01.701Z,70.1
2018-06-11T10:01:01.707Z,70.58
2018-06-11T10:02:01.444Z,70.87
2018-06-11T10:03:01.715Z,71.66
2018-06-11T10:04:01.713Z,71.23
2018-06-11T10:05:01.712Z,71.62
2018-06-11T10:06:01.720Z,71.13
2018-06-11T10:07:01.743Z,71.94
2018-06-11T10:08:01.761Z,70.78
2018-06-11T10:09:01.803Z,69.61
2018-06-11T10:10:01.756Z,69.84
2018-06-11T10:11:01.759Z,68.77
2018-06-11T10:12:01.762Z,67.9
2018-06-11T10:13:01.769Z,67.35
2018-06-11T10:14:01.776Z,67.25
2018-06-11T10:15:01.775Z,66.76
2018-06-11T10:16:01.788Z,66.11
2018-06-11T10:17:01.784Z,65.72
2018-06-11T10:18:01.529Z,66.41
2018-06-11T10:19:01.791Z,66.63
2018-06-11T10:20:01.799Z,66.14
2018-06-11T10:21:01.549Z,65.85
2018-06-11T10:22:01.824Z,64.03
2018-06-11T10:53:26.593Z,61.76
2018-06-11T10:54:26.343Z,61.96
2018-06-11T10:55:26.599Z,62.8
2018-06-11T10:56:26.661Z,61.54
2018-06-11T10:57:26.350Z,61.83
2018-06-11T10:58:26.611Z,61.54
2018-06-11T10:59:26.628Z,60.85
2018-06-11T11:00:26.623Z,62.22
2018-06-11T11:01:26.622Z,62.63
2018-06-11T11:02:26.632Z,62.25
2018-06-11T11:03:26.631Z,60.91
2018-06-11T11:04:26.641Z,59.55
2018-06-11T11:05:26.645Z,59.16
2018-06-11T11:06:26.669Z,58.12
2018-06-11T11:07:26.661Z,58.58
2018-06-11T11:08:26.669Z,58.99
2018-06-11T11:09:26.411Z,59.58
2018-06-11T11:10:26.687Z,57.85
2018-06-11T11:11:26.716Z,57.65
2018-06-11T11:12:26.702Z,57.68
2018-06-11T11:13:26.702Z,58.17
2018-06-11T11:14:26.521Z,56.41
2018-06-11T11:15:26.707Z,56.32
2018-06-11T11:16:26.717Z,56.29
2018-06-11T11:17:26.466Z,56.97
2018-06-11T11:18:26.733Z,58.04
2018-06-11T11:19:26.471Z,57.95
2018-06-11T11:20:26.755Z,57.17
2018-06-11T11:21:26.757Z,57.75
2018-06-11T11:22:26.760Z,57.85
2018-06-11T11:23:26.776Z,56.77
2018-06-11T11:24:26.767Z,58.14
2018-06-11T11:25:26.511Z,59.9
2018-06-11T11:26:26.879Z,59.67
2018-06-11T11:27:26.797Z,59.28
2018-06-11T11:28:27.606Z,60.03
2018-06-11T11:29:26.543Z,59.94
2018-06-11T11:30:26.812Z,59.84
2018-06-11T11:31:26.883Z,60.52
2018-06-11T11:32:26.827Z,61.3
2018-06-11T11:33:26.827Z,63.25
2018-06-11T11:34:26.572Z,64.62
2018-06-11T11:35:26.846Z,62.86
2018-06-11T11:36:26.860Z,63.51
2018-06-11T11:37:26.867Z,62.28
2018-06-11T11:38:26.865Z,61.21
2018-06-11T11:39:26.616Z,60.75
2018-06-11T11:40:26.879Z,60.16
2018-06-11T11:41:26.642Z,59.31
2018-06-11T11:42:26.882Z,59.02
2018-06-11T11:43:26.904Z,59.22
2018-06-11T11:44:26.904Z,58.34
2018-06-11T11:45:26.644Z,58.37
2018-06-11T11:46:26.653Z,58.27
2018-06-11T11:47:26.924Z,58.47
2018-06-11T11:48:26.667Z,57.98
2018-06-11T11:49:26.693Z,57.98
2018-06-11T11:50:26.692Z,57.88
2018-06-11T11:51:27.035Z,57.13
2018-06-11T11:52:26.953Z,57.23
2018-06-11T11:53:26.751Z,57.62
2018-06-11T11:54:26.963Z,58.47
2018-06-11T11:55:26.967Z,58.17
2018-06-11T11:56:26.729Z,58.24
2018-06-11T11:57:27.101Z,58.17
2018-06-11T11:58:27.003Z,57.68
2018-06-11T11:59:27.002Z,57.49
2018-06-11T12:00:27.011Z,56.93
2018-06-11T12:01:26.753Z,56.93
2018-06-11T12:02:27.023Z,57.68
2018-06-11T12:03:27.055Z,57.98
2018-06-11T12:04:27.039Z,57.29
2018-06-11T12:05:27.040Z,57.13
2018-06-11T12:06:27.050Z,58.11
2018-06-11T12:07:27.055Z,59.18
2018-06-11T12:08:27.084Z,57.42
2018-06-11T12:09:26.824Z,57.91
2018-06-11T12:10:27.072Z,58.01
2018-06-11T12:11:27.142Z,58.01
2018-06-11T12:12:26.830Z,57.74
2018-06-11T12:13:27.901Z,58.62
2018-06-11T12:14:27.102Z,57.74
2018-06-11T12:15:27.104Z,56.76
2018-06-11T12:16:27.180Z,56.5
2018-06-11T12:17:27.119Z,55.91
2018-06-11T12:18:26.874Z,55.71
2018-06-11T12:19:26.891Z,55.42
2018-06-11T12:20:27.146Z,56.3
2018-06-11T12:21:27.181Z,56.6
2018-06-11T12:22:27.161Z,56.5
2018-06-11T12:23:27.199Z,56.01
2018-06-11T12:24:26.956Z,56.4
2018-06-11T12:25:27.180Z,55.03
2018-06-11T12:26:27.284Z,54.35
2018-06-11T12:27:26.948Z,54.54
2018-06-11T12:28:26.954Z,53.56
2018-06-11T12:29:27.212Z,52.78
2018-06-11T12:30:26.962Z,52.98
2018-06-11T12:31:27.058Z,53.17
2018-06-11T12:32:27.231Z,53.83
2018-06-11T12:33:26.974Z,54.32
2018-06-11T12:34:26.996Z,54.79
2018-06-11T12:35:27.254Z,55.54
2018-06-11T12:36:27.290Z,56.12
2018-06-11T12:37:27.279Z,55.8
2018-06-11T12:38:27.277Z,56.97
2018-06-11T12:39:27.024Z,55.8
2018-06-11T12:40:27.025Z,55.71
2018-06-11T12:41:27.290Z,55.93
2018-06-11T12:42:27.299Z,56.1
2018-06-11T12:43:27.317Z,56.87
2018-06-11T12:44:27.315Z,56.95
2018-06-11T12:45:27.343Z,57.53
2018-06-11T12:46:27.130Z,56.85
2018-06-11T12:47:27.138Z,57.92
2018-06-11T12:48:27.362Z,58.5
2018-06-11T12:49:27.359Z,57.73
2018-06-11T12:50:27.092Z,57.92
2018-06-11T12:51:27.389Z,58.22
2018-06-11T12:52:27.367Z,58.48
2018-06-11T12:53:27.384Z,58.48
2018-06-11T12:54:27.121Z,58.58
2018-06-11T12:55:27.390Z,58.48
2018-06-11T12:56:27.477Z,57.89
2018-06-11T12:57:27.149Z,57.79
2018-06-11T12:58:27.433Z,57.43
2018-06-11T12:59:27.425Z,57.53
2018-06-11T13:00:27.417Z,57.43
2018-06-11T13:01:27.568Z,57.34
2018-06-11T13:02:27.436Z,57.04
2018-06-11T13:03:27.196Z,57.73
2018-06-11T13:04:27.192Z,57.53
2018-06-11T13:05:27.458Z,59.19
2018-06-11T13:06:27.461Z,59.38
2018-06-11T13:07:27.464Z,58.02
2018-06-11T13:08:27.228Z,57.82
2018-06-11T13:09:27.479Z,59.67
2018-06-11T13:10:27.496Z,58.89
2018-06-11T13:11:27.585Z,59.77
2018-06-11T13:12:27.235Z,59.97
2018-06-11T13:13:27.535Z,59.87
2018-06-11T13:14:27.518Z,60.26
2018-06-11T13:15:27.516Z,60.85
2018-06-11T13:16:27.593Z,60.75
2018-06-11T13:17:27.265Z,60.55
2018-06-11T13:18:27.545Z,60.46
2018-06-11T13:19:27.550Z,59.97
2018-06-11T13:20:27.289Z,60.1
2018-06-11T13:21:27.338Z,60.58
2018-06-11T13:22:27.300Z,61.14
2018-06-11T13:23:27.573Z,61.04
2018-06-11T13:24:27.606Z,61.72
2018-06-11T13:25:27.584Z,61.6